Allerte
Precipitazioni in corso 

Nessun fenomeno

Allerta Gelo (░C)  

Nessuna

Allerta Vento (km/h)  

Nessuna

Scarsa VisibilitÓ (m) 

Nessuna

Allerta Caldo (░C)  

Nessuna

Allerta Afa (░C-UR)  

Nessuna

Dati e Grafici Climatici 3-7 gg
L'OMTeA propone un elaborazione dei più importanti parametri meteorologici rilevati dalle stazioni che hanno aderito al progetto di monitoraggio. In questa sezione è possibile consultare i dati provenienti dalle centraline, interpretati attraverso output testuale e grafico.
Se vuoi aderire alla rete OMTeA vai alla pagina Info e leggi requisiti e vantaggi.

Stazione di Pomezia - www.pomeziameteo.it

Valori rilevati il 17/07/2019 alle ore 23:00

Temperatura atmosferica: 24.3 °C
Pressione atmosferica: 1010.2 mbar
Umidità relativa: 57 %

Altitudine: 108 metri s.l.m.
Latitudine: 41.41° N
Longitudine: 12.30° E



Entra nella rete OMTeA!. Potrai liberamente usare sul tuo sito questi grafici; info alla pagina Istruzioni.

Ultime 50 rilevazioni
Orario Temp
°C
Rugiada
°C
Prec.
mm
Press.
mbar
Umidità
%
Int. vento
km/h
Dir.
vento
23:00 - 17/07 24.3 15.2 0 1010.20 57 0 --
22:45 - 17/07 24.3 15.5 0 1010.30 58 0 --
22:30 - 17/07 24.4 15.9 0 1010.30 59 1.6 N
22:15 - 17/07 24.5 16.2 0 1010.40 60 0 --
22:00 - 17/07 24.6 16.0 0 1010.40 59 0 --
21:45 - 17/07 24.7 16.4 0 1010.40 60 0 --
21:30 - 17/07 25.1 15.1 0 1010.30 54 0 --
21:15 - 17/07 25.1 15.1 0 1010.20 54 0 --
21:00 - 17/07 25.1 15.7 0 1010.10 56 0 --
20:45 - 17/07 25.3 16.4 0 1010.10 58 1.6 NO
20:30 - 17/07 25.4 16.8 0 1010.10 59 1.6 SSE
20:15 - 17/07 25.5 16.6 0 1010.10 58 0 --
20:00 - 17/07 25.9 16.2 0 1010.10 55 0 --
19:45 - 17/07 26.3 15.3 0 1010.10 51 0 --
19:30 - 17/07 26.8 15.2 0 1010.10 49 0 --
19:15 - 17/07 26.9 14.3 0 1010.10 46 0 --
19:00 - 17/07 27.1 14.5 0 1010.10 46 0 --
18:45 - 17/07 27.1 12.7 0 1010.10 41 0 --
18:30 - 17/07 27.3 14.6 0 1010.10 46 0 --
18:15 - 17/07 27.6 13.5 0 1010.20 42 0 --
18:00 - 17/07 27.4 15.1 0 1010.30 47 0 --
17:45 - 17/07 27.3 15.9 0 1010.30 50 0 --
17:30 - 17/07 27.1 16.7 0 1010.20 53 0 --
17:15 - 17/07 27.1 17.3 0 1010.40 55 6.4 SSE
17:00 - 17/07 27.2 18.7 0 1010.30 60 1.6 SSE
16:45 - 17/07 27.1 18.4 0 1010.40 59 0 --
16:30 - 17/07 27.2 18.2 0 1010.30 58 11.3 SO
16:15 - 17/07 27.7 18.4 0 1010.30 57 12.9 SSE
16:00 - 17/07 27.6 17.7 0 1010.30 55 0 --
15:45 - 17/07 27.4 16.7 0 1010.40 52 1.6 O
15:30 - 17/07 27.7 17.2 0 1010.50 53 1.6 S
15:15 - 17/07 27.9 17.7 0 1010.50 54 0 --
15:00 - 17/07 27.9 17.4 0 1010.50 53 3.2 SSE
14:45 - 17/07 27.7 15.7 0 1010.50 48 0 --
14:30 - 17/07 28.0 13.9 0 1010.70 42 0 --
14:15 - 17/07 28.7 12.1 0 1010.70 36 1.6 ONO
14:00 - 17/07 28.4 11.0 0 1010.80 34 0 --
13:45 - 17/07 28.4 11.0 0 1010.80 34 4.8 SE
13:30 - 17/07 28.3 10.9 0 1011.00 34 12.9 SSE
13:15 - 17/07 27.8 11.3 0 1011.10 36 12.9 S
13:00 - 17/07 28.3 13.4 0 1011.00 40 3.2 SSE
12:45 - 17/07 27.9 14.5 0 1011.00 44 8.0 S
12:30 - 17/07 27.7 14.7 0 1011.00 45 16.1 OSO
12:15 - 17/07 27.8 15.8 0 1011.10 48 12.9 SE
12:00 - 17/07 27.8 15.4 0 1011.00 47 0 --
11:46 - 17/07 27.6 15.3 0 1011.10 47 1.6 S
11:30 - 17/07 27.3 15.6 0 1011.00 49 0 --
11:15 - 17/07 27.5 16.4 0 1011.00 51 1.6 SSE
11:00 - 17/07 27.5 16.4 0 1011.10 51 0 --
10:45 - 17/07 27.1 16.4 0 1011.10 52 0 --


   In caso di mancato funzionamento di qualche risorsa, vi preghiamo di segnalarcelo alla pagina Contatti.
© 2019 Osservatorio Meteo OMTeA
Sito di informazione su Meteo, Tempo in atto e Clima in Italia